createdAt,value
2022-11-29T00:01:40.902Z,99483.09
2022-11-29T00:03:42.408Z,99490.16
2022-11-29T00:05:43.780Z,99491.75
2022-11-29T00:07:45.469Z,99493.38
2022-11-29T00:09:46.906Z,99490.75
2022-11-29T00:12:06.890Z,99492.16
2022-11-29T00:14:10.904Z,99492.38
2022-11-29T00:16:12.511Z,99495.81
2022-11-29T00:18:13.969Z,99499.03
2022-11-29T00:20:15.480Z,99499.25
2022-11-29T00:22:16.975Z,99496.63
2022-11-29T00:24:18.631Z,99497.22
2022-11-29T00:26:20.231Z,99502.47
2022-11-29T00:28:21.654Z,99496.41
2022-11-29T00:30:23.141Z,99499.66
2022-11-29T00:32:24.655Z,99502.69
2022-11-29T00:34:26.224Z,99505.69
2022-11-29T00:36:28.140Z,99504.69
2022-11-29T00:38:29.584Z,99513.41
2022-11-29T00:40:30.956Z,99508.94
2022-11-29T00:42:32.320Z,99505.31
2022-11-29T00:44:33.720Z,99501.66
2022-11-29T00:46:35.091Z,99499.84
2022-11-29T00:48:37.340Z,99502.66
2022-11-29T00:50:38.739Z,99499.22
2022-11-29T00:52:40.110Z,99491.94
2022-11-29T00:54:41.849Z,99495.38
2022-11-29T00:56:43.789Z,99491.94
2022-11-29T00:58:45.205Z,99499.03
2022-11-29T01:00:47.671Z,99502.47
2022-11-29T01:02:49.188Z,99503.06
2022-11-29T01:04:50.609Z,99503.66
2022-11-29T01:06:52.960Z,99501.84
2022-11-29T01:08:54.343Z,99499.19
2022-11-29T01:11:10.536Z,99502.84
2022-11-29T01:13:11.920Z,99503.66
2022-11-29T01:15:13.327Z,99504.66
2022-11-29T01:17:14.729Z,99509.13
2022-11-29T01:19:16.169Z,99506.31
2022-11-29T01:21:20.855Z,99512.56
2022-11-29T01:23:22.237Z,99507.72
2022-11-29T01:25:23.646Z,99511.75
2022-11-29T01:27:25.147Z,99514.41
2022-11-29T01:29:26.525Z,99514.19
2022-11-29T01:31:31.466Z,99511.38
2022-11-29T01:33:33.616Z,99523.50
2022-11-29T01:35:34.970Z,99516.84
2022-11-29T01:37:36.409Z,99513.19
2022-11-29T01:39:37.861Z,99513.19
2022-11-29T01:41:39.468Z,99518.22
2022-11-29T01:44:04.742Z,99519.84
2022-11-29T01:46:06.117Z,99522.28
2022-11-29T01:48:07.661Z,99523.09
2022-11-29T01:50:09.873Z,99525.94
2022-11-29T01:52:16.771Z,99525.13
2022-11-29T01:54:18.294Z,99525.72
2022-11-29T01:56:20.399Z,99534.03
2022-11-29T01:58:22.407Z,99527.56
2022-11-29T02:00:23.793Z,99532.22
2022-11-29T02:02:33.337Z,99536.66
2022-11-29T02:04:36.990Z,99533.84
2022-11-29T02:06:39.508Z,99541.31
2022-11-29T02:08:43.920Z,99534.66
2022-11-29T02:11:04.080Z,99542.31
2022-11-29T02:13:26.898Z,99538.91
2022-11-29T02:15:41.101Z,99543.56
2022-11-29T02:18:10.392Z,99544.38
2022-11-29T02:20:56.345Z,99542.31
2022-11-29T02:23:14.717Z,99541.53
2022-11-29T02:25:42.125Z,99549.00
2022-11-29T02:28:15.484Z,99547.19
2022-11-29T02:30:23.998Z,99551.84
2022-11-29T02:32:52.884Z,99550.03
2022-11-29T02:35:24.196Z,99558.34
2022-11-29T02:37:56.316Z,99556.31
2022-11-29T02:40:35.729Z,99552.28
2022-11-29T02:42:58.261Z,99553.66
2022-11-29T02:45:21.643Z,99553.47
2022-11-29T02:47:43.956Z,99558.75
2022-11-29T02:50:12.500Z,99557.13
2022-11-29T02:52:30.842Z,99563.41
2022-11-29T02:54:37.079Z,99559.16
2022-11-29T02:56:53.829Z,99556.09
2022-11-29T02:59:25.959Z,99561.38
2022-11-29T03:01:40.216Z,99563.19
2022-11-29T03:03:56.309Z,99569.28
2022-11-29T03:06:04.867Z,99576.16
2022-11-29T03:08:12.397Z,99572.13
2022-11-29T03:10:39.139Z,99571.31
2022-11-29T03:12:45.264Z,99579.22
2022-11-29T03:15:05.204Z,99579.63
2022-11-29T03:17:43.769Z,99577.00
2022-11-29T03:20:07.808Z,99579.44
2022-11-29T03:22:11.961Z,99591.38
2022-11-29T03:24:23.994Z,99588.72
2022-11-29T03:26:54.980Z,99590.78
2022-11-29T03:29:09.334Z,99590.97
2022-11-29T03:31:18.998Z,99589.59
2022-11-29T03:33:30.981Z,99585.94
2022-11-29T03:35:41.650Z,99595.88
2022-11-29T03:37:55.303Z,99593.44
2022-11-29T03:40:03.157Z,99593.84
2022-11-29T03:42:11.065Z,99593.03
2022-11-29T03:44:20.080Z,99602.56
2022-11-29T03:46:33.573Z,99599.13
2022-11-29T03:48:44.940Z,99599.50
2022-11-29T03:50:54.120Z,99602.16
2022-11-29T03:53:01.795Z,99608.03
2022-11-29T03:55:09.311Z,99611.09
2022-11-29T03:57:16.053Z,99608.22
2022-11-29T03:59:36.008Z,99614.31
2022-11-29T04:02:04.649Z,99609.25
2022-11-29T04:04:35.755Z,99611.88
2022-11-29T04:06:52.150Z,99617.56
2022-11-29T04:09:31.180Z,99621.63
2022-11-29T04:11:54.616Z,99622.84
2022-11-29T04:14:17.599Z,99607.66
2022-11-29T04:16:46.712Z,99618.97
2022-11-29T04:19:15.900Z,99628.34
2022-11-29T04:21:24.190Z,99624.50
2022-11-29T04:24:13.518Z,99632.97
2022-11-29T04:26:20.699Z,99637.03
2022-11-29T04:28:40.381Z,99640.06
2022-11-29T04:30:57.410Z,99645.59
2022-11-29T04:33:39.587Z,99644.13
2022-11-29T04:36:03.405Z,99654.47
2022-11-29T04:38:41.205Z,99644.53
2022-11-29T04:40:57.619Z,99648.78
2022-11-29T04:43:10.950Z,99650.59
2022-11-29T04:45:30.866Z,99649.78
2022-11-29T04:47:52.751Z,99653.88
2022-11-29T04:50:09.275Z,99652.25
2022-11-29T04:52:32.219Z,99659.16
2022-11-29T04:54:47.948Z,99654.47
2022-11-29T04:56:54.939Z,99666.00
2022-11-29T04:59:07.616Z,99661.78
2022-11-29T05:01:39.912Z,99667.84
2022-11-29T05:03:59.799Z,99658.34
2022-11-29T05:06:23.166Z,99657.31
2022-11-29T05:08:41.050Z,99665.19
2022-11-29T05:11:01.151Z,99666.25
2022-11-29T05:13:36.507Z,99675.16
2022-11-29T05:15:59.123Z,99674.16
2022-11-29T05:18:19.710Z,99677.78
2022-11-29T05:21:02.963Z,99681.44
2022-11-29T05:23:34.802Z,99686.69
2022-11-29T05:25:55.238Z,99682.47
2022-11-29T05:28:14.733Z,99683.88
2022-11-29T05:30:18.020Z,99678.19
2022-11-29T05:32:57.801Z,99695.63
2022-11-29T05:35:17.170Z,99700.09
2022-11-29T05:37:39.746Z,99703.53
2022-11-29T05:40:07.512Z,99706.34
2022-11-29T05:42:29.293Z,99709.03
2022-11-29T05:44:39.592Z,99711.25
2022-11-29T05:46:50.557Z,99712.25
2022-11-29T05:49:04.664Z,99714.69
2022-11-29T05:51:23.072Z,99713.06
2022-11-29T05:53:30.744Z,99712.44
2022-11-29T05:55:45.404Z,99711.84
2022-11-29T05:57:55.569Z,99722.97
2022-11-29T05:59:58.994Z,99717.53
2022-11-29T06:02:06.256Z,99719.56
2022-11-29T06:04:52.158Z,99723.78
2022-11-29T06:07:16.093Z,99726.44
2022-11-29T06:09:48.167Z,99734.94
2022-11-29T06:11:55.115Z,99738.00
2022-11-29T06:14:02.594Z,99741.41
2022-11-29T06:16:27.081Z,99742.63
2022-11-29T06:18:39.280Z,99747.31
2022-11-29T06:20:51.931Z,99746.50
2022-11-29T06:23:19.089Z,99752.78
2022-11-29T06:25:53.223Z,99750.75
2022-11-29T06:28:13.739Z,99751.97
2022-11-29T06:30:20.169Z,99754.59
2022-11-29T06:32:30.793Z,99759.44
2022-11-29T06:35:02.350Z,99760.69
2022-11-29T06:37:20.944Z,99766.34
2022-11-29T06:39:22.816Z,99770.78
2022-11-29T06:41:24.733Z,99764.94
2022-11-29T06:43:26.568Z,99772.44
2022-11-29T06:45:28.229Z,99768.78
2022-11-29T06:48:03.520Z,99777.28
2022-11-29T06:50:31.004Z,99774.66
2022-11-29T06:52:58.334Z,99778.28
2022-11-29T06:55:41.512Z,99785.59
2022-11-29T06:57:57.647Z,99787.00
2022-11-29T07:00:27.738Z,99791.66
2022-11-29T07:02:39.649Z,99789.03
2022-11-29T07:04:59.855Z,99796.94
2022-11-29T07:07:01.319Z,99797.53
2022-11-29T07:09:15.793Z,99798.94
2022-11-29T07:11:17.410Z,99807.44
2022-11-29T07:13:20.051Z,99809.28
2022-11-29T07:15:23.059Z,99803.81
2022-11-29T07:17:36.336Z,99809.28
2022-11-29T07:19:56.224Z,99809.06
2022-11-29T07:22:30.593Z,99811.91
2022-11-29T07:24:49.902Z,99810.47
2022-11-29T07:27:14.631Z,99808.66
2022-11-29T07:29:29.345Z,99816.16
2022-11-29T07:32:00.110Z,99815.97
2022-11-29T07:34:14.862Z,99819.59
2022-11-29T07:36:40.886Z,99822.63
2022-11-29T07:38:51.446Z,99825.88
2022-11-29T07:41:04.220Z,99826.50
2022-11-29T07:43:21.649Z,99829.31
2022-11-29T07:45:29.188Z,99836.63
2022-11-29T07:47:35.454Z,99831.94
2022-11-29T07:49:37.450Z,99838.03
2022-11-29T07:51:38.875Z,99845.91
2022-11-29T07:53:43.020Z,99839.66
2022-11-29T07:55:45.491Z,99839.84
2022-11-29T07:57:47.730Z,99841.47
2022-11-29T07:59:49.135Z,99845.91
2022-11-29T08:01:50.563Z,99846.72
2022-11-29T08:03:52.022Z,99845.72
2022-11-29T08:05:53.419Z,99849.97
2022-11-29T08:07:55.875Z,99849.97
2022-11-29T08:09:57.288Z,99839.25
2022-11-29T08:11:58.698Z,99837.84
2022-11-29T08:14:01.983Z,99843.69
2022-11-29T08:16:03.658Z,99845.72
2022-11-29T08:18:05.067Z,99851.41
2022-11-29T08:20:08.137Z,99846.94
2022-11-29T08:22:09.533Z,99846.31
2022-11-29T08:24:10.935Z,99851.41
2022-11-29T08:26:12.634Z,99853.81
2022-11-29T08:28:14.234Z,99856.44
2022-11-29T08:30:18.651Z,99865.34
2022-11-29T08:32:20.100Z,99853.81
2022-11-29T08:34:23.173Z,99862.94
2022-11-29T08:36:24.600Z,99862.53
2022-11-29T08:38:25.966Z,99865.34
2022-11-29T08:40:27.520Z,99877.91
2022-11-29T08:42:28.923Z,99870.03
2022-11-29T08:44:30.285Z,99872.88
2022-11-29T08:46:50.334Z,99875.09
2022-11-29T08:48:51.738Z,99882.38
2022-11-29T08:50:55.308Z,99881.38
2022-11-29T08:53:16.825Z,99879.13
2022-11-29T08:55:20.045Z,99876.50
2022-11-29T08:59:44.817Z,99883.19
2022-11-29T09:01:46.209Z,99886.63
2022-11-29T09:03:59.394Z,99888.25
2022-11-29T09:06:12.457Z,99891.50
2022-11-29T09:08:14.169Z,99896.16
2022-11-29T09:10:15.562Z,99895.34
2022-11-29T09:12:17.218Z,99893.53
2022-11-29T09:14:19.191Z,99901.59
2022-11-29T09:16:25.274Z,99909.50
2022-11-29T09:18:28.667Z,99906.06
2022-11-29T09:20:30.045Z,99906.69
2022-11-29T09:22:31.450Z,99909.31
2022-11-29T09:24:34.081Z,99913.19
2022-11-29T09:26:37.826Z,99915.59
2022-11-29T09:28:39.295Z,99921.50
2022-11-29T09:30:40.669Z,99926.13
2022-11-29T09:32:42.042Z,99923.50
2022-11-29T09:34:44.031Z,99928.16
2022-11-29T09:36:45.665Z,99929.00
2022-11-29T09:38:47.083Z,99930.63
2022-11-29T09:40:53.638Z,99930.81
2022-11-29T09:43:02.373Z,99931.03
2022-11-29T09:45:20.461Z,99936.50
2022-11-29T09:47:52.362Z,99944.38
2022-11-29T09:50:25.524Z,99939.75
2022-11-29T09:52:32.872Z,99943.19
2022-11-29T09:54:54.397Z,99954.94
2022-11-29T09:56:57.152Z,99946.66
2022-11-29T09:59:11.780Z,99954.56
2022-11-29T10:01:21.895Z,99951.50
2022-11-29T10:03:29.236Z,99955.16
2022-11-29T10:05:58.633Z,99954.56
2022-11-29T10:08:13.719Z,99954.31
2022-11-29T10:10:19.615Z,99949.88
2022-11-29T10:12:39.495Z,99952.09
2022-11-29T10:14:58.050Z,99943.38
2022-11-29T10:17:19.467Z,99945.00
2022-11-29T10:19:38.077Z,99951.50
2022-11-29T10:21:43.644Z,99954.09
2022-11-29T10:23:47.995Z,99944.78
2022-11-29T10:25:53.041Z,99943.19
2022-11-29T10:27:54.804Z,99945.00
2022-11-29T10:29:59.134Z,99944.00
2022-11-29T10:32:10.137Z,99945.44
2022-11-29T10:34:24.014Z,99945.84
2022-11-29T10:36:33.095Z,99944.81
2022-11-29T10:38:34.708Z,99949.88
2022-11-29T10:40:39.649Z,99949.50
2022-11-29T10:42:50.269Z,99959.84
2022-11-29T10:44:51.705Z,99950.13
2022-11-29T10:46:54.334Z,99954.78
2022-11-29T10:48:58.265Z,99951.72
2022-11-29T10:51:01.423Z,99952.16
2022-11-29T10:53:09.478Z,99952.16
2022-11-29T10:55:14.650Z,99950.75
2022-11-29T10:57:19.395Z,99951.75
2022-11-29T10:59:26.722Z,99959.44
2022-11-29T11:01:29.797Z,99956.19
2022-11-29T11:03:36.398Z,99945.28
2022-11-29T11:05:37.953Z,99956.59
2022-11-29T11:07:39.471Z,99958.44
2022-11-29T11:09:47.582Z,99950.13
2022-11-29T11:11:55.621Z,99956.19
2022-11-29T11:14:02.844Z,99958.19
2022-11-29T11:16:24.372Z,99953.56
2022-11-29T11:18:29.101Z,99952.75
2022-11-29T11:20:33.307Z,99960.66
2022-11-29T11:23:29.748Z,99960.84
2022-11-29T11:25:38.889Z,99952.16
2022-11-29T11:27:40.652Z,99959.66
2022-11-29T11:29:44.514Z,99957.63
2022-11-29T11:31:54.555Z,99958.81
2022-11-29T11:33:55.935Z,99959.66
2022-11-29T11:36:11.915Z,99959.03
2022-11-29T11:38:17.744Z,99951.50
2022-11-29T11:40:28.961Z,99956.19
2022-11-29T11:42:38.650Z,99957.00
2022-11-29T11:44:53.322Z,99963.69
2022-11-29T11:46:55.123Z,99962.69
2022-11-29T11:48:56.557Z,99961.84
2022-11-29T11:51:00.897Z,99963.50
2022-11-29T11:53:06.853Z,99962.06
2022-11-29T11:55:26.640Z,99969.16
2022-11-29T11:57:34.982Z,99965.50
2022-11-29T11:59:36.783Z,99973.22
2022-11-29T12:01:39.075Z,99966.31
2022-11-29T12:03:57.512Z,99962.06
2022-11-29T12:06:24.604Z,99973.00
2022-11-29T12:08:28.571Z,99970.59
2022-11-29T12:10:34.793Z,99969.16
2022-11-29T12:12:41.159Z,99972.41
2022-11-29T12:14:56.474Z,99966.94
2022-11-29T12:17:49.060Z,99974.84
2022-11-29T12:20:15.262Z,99973.41
2022-11-29T12:22:23.394Z,99973.63
2022-11-29T12:24:28.623Z,99975.03
2022-11-29T12:26:57.088Z,99974.03
2022-11-29T12:28:54.951Z,99982.38
2022-11-29T12:31:14.685Z,99992.50
2022-11-29T12:33:39.018Z,99988.03
2022-11-29T12:36:02.109Z,99988.22
2022-11-29T12:38:21.696Z,99992.69
2022-11-29T12:40:29.196Z,99992.66
2022-11-29T12:43:14.175Z,99996.69
2022-11-29T12:45:20.844Z,99990.41
2022-11-29T12:47:51.930Z,99997.31
2022-11-29T12:50:25.829Z,100000.19
2022-11-29T12:52:36.819Z,100003.22
2022-11-29T12:54:38.303Z,100005.63
2022-11-29T12:56:44.272Z,100005.88
2022-11-29T12:59:13.148Z,100008.06
2022-11-29T13:01:49.708Z,100000.78
2022-11-29T13:04:13.945Z,100013.94
2022-11-29T13:06:58.594Z,100004.44
2022-11-29T13:09:05.737Z,100012.16
2022-11-29T13:12:01.136Z,100015.38
2022-11-29T13:14:42.050Z,100011.94
2022-11-29T13:16:49.441Z,100014.13
2022-11-29T13:19:01.608Z,100015.34
2022-11-29T13:21:14.920Z,100016.13
2022-11-29T13:24:07.329Z,100013.09
2022-11-29T13:26:09.409Z,100013.13
2022-11-29T13:28:24.090Z,100017.78
2022-11-29T13:30:26.260Z,100019.81
2022-11-29T13:32:33.733Z,100025.13
2022-11-29T13:34:41.625Z,100025.72
2022-11-29T13:37:04.736Z,100024.75
2022-11-29T13:39:29.195Z,100028.38
2022-11-29T13:41:48.216Z,100022.72
2022-11-29T13:43:59.792Z,100020.06
2022-11-29T13:46:15.498Z,100015.38
2022-11-29T13:48:28.943Z,100017.16
2022-11-29T13:50:40.875Z,100011.69
2022-11-29T13:52:44.816Z,100019.63
2022-11-29T13:54:46.529Z,100021.06
2022-11-29T13:56:48.228Z,100025.31
2022-11-29T13:58:53.662Z,100024.72
2022-11-29T14:01:01.328Z,100033.47
2022-11-29T14:03:28.208Z,100029.78
2022-11-29T14:05:29.653Z,100028.19
2022-11-29T14:07:33.084Z,100029.19
2022-11-29T14:09:57.792Z,100028.00
2022-11-29T14:12:38.129Z,100037.31
2022-11-29T14:15:10.724Z,100036.50
2022-11-29T14:17:33.868Z,100038.53
2022-11-29T14:19:36.950Z,100030.63
2022-11-29T14:22:16.815Z,100042.97
2022-11-29T14:24:35.209Z,100037.31
2022-11-29T14:26:36.686Z,100036.50
2022-11-29T14:28:39.585Z,100040.34
2022-11-29T14:30:44.021Z,100041.34
2022-11-29T14:33:04.165Z,100039.94
2022-11-29T14:35:11.461Z,100040.75
2022-11-29T14:37:28.102Z,100045.81
2022-11-29T14:39:44.388Z,100041.75
2022-11-29T14:41:51.413Z,100043.41
2022-11-29T14:44:25.756Z,100046.81
2022-11-29T14:46:31.236Z,100051.91
2022-11-29T14:48:33.888Z,100052.72
2022-11-29T14:50:42.091Z,100049.03
2022-11-29T14:52:52.800Z,100058.56
2022-11-29T14:54:57.470Z,100052.09
2022-11-29T15:00:04.795Z,100051.66
2022-11-29T15:02:17.539Z,100051.25
2022-11-29T15:04:19.141Z,100063.19
2022-11-29T15:06:26.728Z,100056.13
2022-11-29T15:08:38.324Z,100058.16
2022-11-29T15:10:44.475Z,100065.88
2022-11-29T15:12:47.161Z,100062.59
2022-11-29T15:15:07.869Z,100061.19
2022-11-29T15:17:26.243Z,100060.19
2022-11-29T15:19:57.654Z,100065.59
2022-11-29T15:22:20.474Z,100065.41
2022-11-29T15:24:26.781Z,100071.09
2022-11-29T15:26:30.980Z,100065.59
2022-11-29T15:28:32.454Z,100069.50
2022-11-29T15:30:39.542Z,100071.28
2022-11-29T15:32:43.387Z,100072.69
2022-11-29T15:34:50.376Z,100064.97
2022-11-29T15:36:52.030Z,100068.25
2022-11-29T15:38:56.262Z,100075.31
2022-11-29T15:40:58.416Z,100071.88
2022-11-29T15:43:23.279Z,100075.91
2022-11-29T15:45:39.116Z,100068.84
2022-11-29T15:47:40.536Z,100076.53
2022-11-29T15:49:42.016Z,100074.09
2022-11-29T15:51:48.248Z,100071.28
2022-11-29T15:54:11.346Z,100079.38
2022-11-29T15:56:35.708Z,100077.34
2022-11-29T15:58:37.387Z,100083.63
2022-11-29T16:00:39.615Z,100084.22
2022-11-29T16:02:50.222Z,100081.34
2022-11-29T16:04:55.428Z,100087.03
2022-11-29T16:06:57.699Z,100083.41
2022-11-29T16:09:01.296Z,100086.63
2022-11-29T16:11:02.794Z,100089.66
2022-11-29T16:13:07.848Z,100091.53
2022-11-29T16:15:33.624Z,100091.53
2022-11-29T16:17:35.126Z,100087.44
2022-11-29T16:19:37.879Z,100094.16
2022-11-29T16:21:39.934Z,100096.56
2022-11-29T16:23:42.740Z,100095.31
2022-11-29T16:26:00.900Z,100096.97
2022-11-29T16:28:02.413Z,100098.38
2022-11-29T16:30:14.954Z,100101.00
2022-11-29T16:32:25.828Z,100107.50
2022-11-29T16:34:31.161Z,100107.50
2022-11-29T16:36:32.727Z,100111.75
2022-11-29T16:38:34.218Z,100107.88
2022-11-29T16:40:35.638Z,100107.88
2022-11-29T16:42:37.173Z,100111.09
2022-11-29T16:44:42.186Z,100113.75
2022-11-29T16:46:43.678Z,100110.09
2022-11-29T16:48:45.113Z,100112.91
2022-11-29T16:51:16.068Z,100111.72
2022-11-29T16:53:36.788Z,100112.53
2022-11-29T16:55:38.150Z,100107.22
2022-11-29T16:57:39.911Z,100118.19
2022-11-29T16:59:41.414Z,100116.16
2022-11-29T17:01:42.971Z,100113.75
2022-11-29T17:03:44.465Z,100120.81
2022-11-29T17:05:45.961Z,100119.81
2022-11-29T17:07:48.139Z,100120.63
2022-11-29T17:09:49.697Z,100127.47
2022-11-29T17:11:55.874Z,100122.63
2022-11-29T17:13:57.397Z,100126.28
2022-11-29T17:16:02.283Z,100128.28
2022-11-29T17:18:08.431Z,100124.63
2022-11-29T17:20:17.024Z,100131.31
2022-11-29T17:22:18.790Z,100133.16
2022-11-29T17:24:23.948Z,100124.84
2022-11-29T17:26:29.128Z,100128.88
2022-11-29T17:28:38.159Z,100136.16
2022-11-29T17:31:01.218Z,100126.84
2022-11-29T17:34:10.008Z,100135.53
2022-11-29T17:36:15.587Z,100128.66
2022-11-29T17:38:26.166Z,100131.31
2022-11-29T17:40:27.712Z,100131.44
2022-11-29T17:42:29.539Z,100130.06
2022-11-29T17:44:34.033Z,100133.66
2022-11-29T17:46:40.044Z,100134.66
2022-11-29T17:48:42.862Z,100130.78
2022-11-29T17:50:44.391Z,100133.22
2022-11-29T17:53:00.050Z,100133.22
2022-11-29T17:59:32.871Z,100134.66
2022-11-29T18:01:36.074Z,100142.13
2022-11-29T18:03:40.196Z,100142.78
2022-11-29T18:05:41.571Z,100142.56
2022-11-29T18:07:57.629Z,100145.19
2022-11-29T18:30:48.765Z,100160.94
2022-11-29T18:32:50.232Z,100161.94
2022-11-29T18:34:51.640Z,100162.56
2022-11-29T18:36:53.019Z,100159.94
2022-11-29T18:39:07.233Z,100165.41
2022-11-29T18:41:09.533Z,100169.44
2022-11-29T18:43:12.304Z,100162.38
2022-11-29T18:45:13.753Z,100168.66
2022-11-29T18:47:15.167Z,100167.03
2022-11-29T18:49:18.156Z,100165.81
2022-11-29T18:51:20.242Z,100164.34
2022-11-29T18:53:21.705Z,100172.28
2022-11-29T18:55:23.103Z,100167.84
2022-11-29T18:57:24.485Z,100167.41
2022-11-29T18:59:26.028Z,100162.97
2022-11-29T19:01:31.066Z,100171.66
2022-11-29T19:04:20.353Z,100165.59
2022-11-29T19:06:25.319Z,100170.06
2022-11-29T19:08:26.818Z,100169.63
2022-11-29T19:10:28.454Z,100168.81
2022-11-29T19:12:29.910Z,100168.41
2022-11-29T19:14:32.299Z,100169.03
2022-11-29T19:16:34.589Z,100162.16
2022-11-29T19:18:36.032Z,100173.50
2022-11-29T19:20:37.395Z,100173.69
2022-11-29T19:22:38.802Z,100164.56
2022-11-29T19:24:40.171Z,100165.34
2022-11-29T19:26:46.811Z,100171.03
2022-11-29T19:28:48.649Z,100179.94
2022-11-29T19:42:30.488Z,100185.78
2022-11-29T19:44:48.243Z,100184.59
2022-11-29T19:46:57.040Z,100193.31
2022-11-29T19:48:59.626Z,100194.91
2022-11-29T19:51:01.069Z,100199.56
2022-11-29T19:53:03.266Z,100189.44
2022-11-29T19:55:04.943Z,100187.84
2022-11-29T19:57:06.314Z,100191.28
2022-11-29T19:59:08.394Z,100202.81
2022-11-29T20:01:12.877Z,100193.91
2022-11-29T20:03:14.676Z,100186.84
2022-11-29T20:05:16.206Z,100190.91
2022-11-29T20:07:17.611Z,100197.38
2022-11-29T20:09:19.299Z,100189.66
2022-11-29T20:11:22.932Z,100202.25
2022-11-29T20:13:24.348Z,100190.91
2022-11-29T20:15:25.801Z,100195.97
2022-11-29T20:17:27.151Z,100201.63
2022-11-29T20:19:28.731Z,100200.00
2022-11-29T20:21:32.569Z,100210.34
2022-11-29T20:23:34.685Z,100212.34
2022-11-29T20:25:37.122Z,100211.94
2022-11-29T20:27:39.359Z,100211.13
2022-11-29T20:29:40.722Z,100209.31
2022-11-29T20:31:50.217Z,100213.78
2022-11-29T20:33:54.546Z,100214.97
2022-11-29T20:36:15.921Z,100214.41
2022-11-29T20:38:33.317Z,100214.84
2022-11-29T20:40:58.230Z,100214.19
2022-11-29T20:43:16.281Z,100216.22
2022-11-29T20:45:18.566Z,100214.78
2022-11-29T20:47:23.490Z,100211.53
2022-11-29T20:49:25.158Z,100213.78
2022-11-29T20:51:39.141Z,100209.97
2022-11-29T20:53:42.825Z,100206.59
2022-11-29T20:55:47.905Z,100211.91
2022-11-29T20:57:49.881Z,100207.47
2022-11-29T20:59:51.234Z,100215.97
2022-11-29T21:01:52.697Z,100217.44
2022-11-29T21:03:54.258Z,100210.91
2022-11-29T21:05:57.197Z,100214.09
2022-11-29T21:07:58.653Z,100223.22
2022-11-29T21:10:01.712Z,100217.19
2022-11-29T21:12:03.750Z,100220.56
2022-11-29T21:14:07.909Z,100215.75
2022-11-29T21:16:12.015Z,100221.63
2022-11-29T21:18:25.386Z,100219.38
2022-11-29T21:20:27.724Z,100225.06
2022-11-29T21:22:48.275Z,100221.22
2022-11-29T21:25:34.245Z,100225.88
2022-11-29T21:27:35.979Z,100227.44
2022-11-29T21:29:37.760Z,100223.25
2022-11-29T21:31:39.536Z,100225.47
2022-11-29T21:33:41.276Z,100228.25
2022-11-29T21:35:42.754Z,100220.38
2022-11-29T21:37:45.476Z,100226.28
2022-11-29T21:39:48.888Z,100227.22
2022-11-29T21:41:50.280Z,100228.66
2022-11-29T21:44:06.219Z,100223.63
2022-11-29T21:46:08.949Z,100229.72
2022-11-29T21:48:30.502Z,100227.00
2022-11-29T21:50:31.959Z,100229.47
2022-11-29T21:52:33.429Z,100229.66
2022-11-29T21:54:34.898Z,100234.34
2022-11-29T21:56:36.301Z,100230.72
2022-11-29T21:58:38.860Z,100232.91
2022-11-29T22:00:40.262Z,100235.78
2022-11-29T22:02:41.701Z,100237.97
2022-11-29T22:04:43.248Z,100238.63
2022-11-29T22:06:44.673Z,100231.53
2022-11-29T22:08:47.227Z,100237.63
2022-11-29T22:10:48.703Z,100237.41
2022-11-29T22:12:52.452Z,100238.41
2022-11-29T22:14:54.223Z,100235.59
2022-11-29T22:16:58.008Z,100236.38
2022-11-29T22:18:59.391Z,100243.88
2022-11-29T22:21:07.088Z,100236.97
2022-11-29T22:23:09.618Z,100234.72
2022-11-29T22:25:11.048Z,100237.34
2022-11-29T22:27:12.467Z,100234.28
2022-11-29T22:29:14.786Z,100242.38
2022-11-29T22:31:16.349Z,100234.72
2022-11-29T22:33:17.781Z,100232.53
2022-11-29T22:35:19.154Z,100230.72
2022-11-29T22:37:20.537Z,100235.97
2022-11-29T22:39:22.264Z,100233.75
2022-11-29T22:41:23.669Z,100242.63
2022-11-29T22:43:25.011Z,100245.09
2022-11-29T22:45:26.588Z,100240.81
2022-11-29T22:47:28.009Z,100244.88
2022-11-29T22:49:29.944Z,100247.31
2022-11-29T22:51:33.936Z,100238.34
2022-11-29T22:53:36.720Z,100237.53
2022-11-29T22:55:38.094Z,100240.38
2022-11-29T22:57:39.473Z,100242.19
2022-11-29T22:59:40.833Z,100236.09
2022-11-29T23:01:42.533Z,100244.81
2022-11-29T23:03:48.056Z,100244.00
2022-11-29T23:05:49.436Z,100247.44
2022-11-29T23:07:54.888Z,100250.69
2022-11-29T23:09:56.370Z,100247.44
2022-11-29T23:11:57.797Z,100256.13
2022-11-29T23:13:59.138Z,100255.28
2022-11-29T23:16:01.433Z,100258.53
2022-11-29T23:18:02.948Z,100258.09
2022-11-29T23:20:04.980Z,100261.00
2022-11-29T23:22:06.389Z,100264.22
2022-11-29T23:24:07.945Z,100258.16
2022-11-29T23:26:17.517Z,100262.63
2022-11-29T23:28:18.932Z,100255.72
2022-11-29T23:30:20.327Z,100267.91
2022-11-29T23:32:21.715Z,100272.72
2022-11-29T23:34:23.183Z,100272.13
2022-11-29T23:36:24.677Z,100267.06
2022-11-29T23:38:26.170Z,100270.13
2022-11-29T23:40:27.613Z,100267.50
2022-11-29T23:42:29.018Z,100267.25
2022-11-29T23:44:30.447Z,100262.81
2022-11-29T23:46:31.983Z,100264.22
2022-11-29T23:48:33.399Z,100259.78
2022-11-29T23:50:34.967Z,100267.91
2022-11-29T23:52:36.545Z,100271.69
2022-11-29T23:54:37.943Z,100262.63
2022-11-29T23:56:39.326Z,100262.97
2022-11-29T23:58:41.302Z,100261.00
